首页
METAR-TAF:

METAR-TAF

机场 :

彭德-雅皮特國際機場

皮特尔角城, 瓜德罗普

纬度: 16-16N, 经度: 061-31W, 海拔: 11米

当前天气观测

该预报发布于38分钟前的23:00 UTC
风速5节,风向东转东南
温度 27°C
湿度 84%
气压 1012 hPa
能见度10公里或以上
1500米以下无云,无积雨云

METAR: TFFR 172300Z AUTO 12005KT CAVOK 27/24 Q1012 TEMPO VRB15G25KT 1000 TSRA SCT010CB BKN016TCU

时间: 19:38 (23:38 UTC)

预报

该预报发布于5小时和58分钟前的17:40 UTC
预报有效从17日的 18点(UTC)到 18日的 18点(UTC)
风速7节,风向
能见度10公里或以上
散云层高于3000英尺, 塔状积云.
多云层高于4000英尺
短暂存在
从 17日的 18点(UTC)到 18日的 18点(UTC)
能見度: 4000
多云层高于1800英尺, 塔状积云.
阵雨
几率 30% :
短暂存在
从 17日的 21点(UTC)到 18日的 15点(UTC)
风速15节,风向多变,有时为25节阵风
能見度: 1000
散云层高于1000英尺, 积雨云.
多云层高于1600英尺, 塔状积云.
雷暴, 雨

TAF: TFFR 171740Z 1718/1818 08007KT 9999 SCT030TCU BKN040 TEMPO 1718/1818 4000 SHRA BKN018TCU PROB30 TEMPO 1721/1815 VRB15G25KT 1000 TSRA SCT010CB BKN016TCU

超过4000个机场的气象观测和天气预报(METAR&TAF报告)。

可查询的气象台以黄色和红色小点在地图上表示。

将鼠标移到小点上方,可查看气象台名称。

然后点击查看天气观测和预报。

如需切换地图:点击带黑十字的绿色按钮放大地图;点击带横线的绿色按钮缩小地图;或者点击绿色箭头查看邻近地区的地图。


METAR-TAF: